sensor_id;sensor_type;location;lat;lon;timestamp;temperature;humidity
34147;DHT22;20423;49.448;9.056;2023-06-04T00:01:03;12.70;85.40
34147;DHT22;20423;49.448;9.056;2023-06-04T00:03:35;12.70;85.20
34147;DHT22;20423;49.448;9.056;2023-06-04T00:06:01;12.60;85.50
34147;DHT22;20423;49.448;9.056;2023-06-04T00:08:26;12.50;85.70
34147;DHT22;20423;49.448;9.056;2023-06-04T00:10:52;12.40;85.80
34147;DHT22;20423;49.448;9.056;2023-06-04T00:13:17;12.40;86.40
34147;DHT22;20423;49.448;9.056;2023-06-04T00:15:43;12.40;86.30
34147;DHT22;20423;49.448;9.056;2023-06-04T00:18:09;12.40;86.40
34147;DHT22;20423;49.448;9.056;2023-06-04T00:20:36;12.40;86.30
34147;DHT22;20423;49.448;9.056;2023-06-04T00:23:02;12.30;86.40
34147;DHT22;20423;49.448;9.056;2023-06-04T00:25:27;12.30;86.50
34147;DHT22;20423;49.448;9.056;2023-06-04T00:27:53;12.30;86.50
34147;DHT22;20423;49.448;9.056;2023-06-04T00:30:18;12.30;86.40
34147;DHT22;20423;49.448;9.056;2023-06-04T00:32:44;12.30;86.40
34147;DHT22;20423;49.448;9.056;2023-06-04T00:35:12;12.30;86.10
34147;DHT22;20423;49.448;9.056;2023-06-04T00:37:38;12.30;86.30
34147;DHT22;20423;49.448;9.056;2023-06-04T00:40:03;12.30;86.50
34147;DHT22;20423;49.448;9.056;2023-06-04T00:42:31;12.20;86.50
34147;DHT22;20423;49.448;9.056;2023-06-04T00:44:56;12.20;86.90
34147;DHT22;20423;49.448;9.056;2023-06-04T00:47:23;12.10;86.80
34147;DHT22;20423;49.448;9.056;2023-06-04T00:49:48;12.10;87.30
34147;DHT22;20423;49.448;9.056;2023-06-04T00:52:14;12.00;87.60
34147;DHT22;20423;49.448;9.056;2023-06-04T00:54:40;12.00;87.40
34147;DHT22;20423;49.448;9.056;2023-06-04T00:57:06;12.00;87.60
34147;DHT22;20423;49.448;9.056;2023-06-04T00:59:32;12.00;87.80
34147;DHT22;20423;49.448;9.056;2023-06-04T01:02:03;11.90;87.40
34147;DHT22;20423;49.448;9.056;2023-06-04T01:04:45;11.90;88.00
34147;DHT22;20423;49.448;9.056;2023-06-04T01:07:11;11.90;88.00
34147;DHT22;20423;49.448;9.056;2023-06-04T01:09:38;11.80;88.70
34147;DHT22;20423;49.448;9.056;2023-06-04T01:12:04;11.80;88.80
34147;DHT22;20423;49.448;9.056;2023-06-04T01:14:30;11.70;89.00
34147;DHT22;20423;49.448;9.056;2023-06-04T01:17:05;11.70;88.90
34147;DHT22;20423;49.448;9.056;2023-06-04T01:22:17;11.90;88.70
34147;DHT22;20423;49.448;9.056;2023-06-04T01:24:50;12.00;88.80
34147;DHT22;20423;49.448;9.056;2023-06-04T01:27:18;12.10;87.40
34147;DHT22;20423;49.448;9.056;2023-06-04T01:29:45;12.20;87.40
34147;DHT22;20423;49.448;9.056;2023-06-04T01:32:10;12.20;86.60
34147;DHT22;20423;49.448;9.056;2023-06-04T01:34:43;12.30;86.80
34147;DHT22;20423;49.448;9.056;2023-06-04T01:37:09;12.30;86.50
34147;DHT22;20423;49.448;9.056;2023-06-04T01:39:36;12.20;86.40
34147;DHT22;20423;49.448;9.056;2023-06-04T01:42:11;12.20;86.20
34147;DHT22;20423;49.448;9.056;2023-06-04T01:44:37;12.20;86.20
34147;DHT22;20423;49.448;9.056;2023-06-04T01:47:02;12.10;86.30
34147;DHT22;20423;49.448;9.056;2023-06-04T01:49:28;12.10;86.20
34147;DHT22;20423;49.448;9.056;2023-06-04T01:51:54;12.00;86.00
34147;DHT22;20423;49.448;9.056;2023-06-04T01:54:22;12.00;86.70
34147;DHT22;20423;49.448;9.056;2023-06-04T01:56:47;11.90;86.70
34147;DHT22;20423;49.448;9.056;2023-06-04T01:59:14;11.80;86.80
34147;DHT22;20423;49.448;9.056;2023-06-04T02:01:41;11.80;86.80
34147;DHT22;20423;49.448;9.056;2023-06-04T02:04:07;11.70;87.30
34147;DHT22;20423;49.448;9.056;2023-06-04T02:06:42;11.60;87.60
34147;DHT22;20423;49.448;9.056;2023-06-04T02:09:07;11.50;88.00
34147;DHT22;20423;49.448;9.056;2023-06-04T02:11:36;11.50;88.30
34147;DHT22;20423;49.448;9.056;2023-06-04T02:14:02;11.40;87.50
34147;DHT22;20423;49.448;9.056;2023-06-04T02:16:28;11.40;88.00
34147;DHT22;20423;49.448;9.056;2023-06-04T02:18:53;11.50;88.30
34147;DHT22;20423;49.448;9.056;2023-06-04T02:21:19;11.50;87.80
34147;DHT22;20423;49.448;9.056;2023-06-04T02:23:45;11.50;87.60
34147;DHT22;20423;49.448;9.056;2023-06-04T02:26:10;11.50;87.70
34147;DHT22;20423;49.448;9.056;2023-06-04T02:28:36;11.40;87.70
34147;DHT22;20423;49.448;9.056;2023-06-04T02:31:02;11.50;87.40
34147;DHT22;20423;49.448;9.056;2023-06-04T02:33:27;11.40;87.40
34147;DHT22;20423;49.448;9.056;2023-06-04T02:35:53;11.40;87.40
34147;DHT22;20423;49.448;9.056;2023-06-04T02:38:19;11.40;87.40
34147;DHT22;20423;49.448;9.056;2023-06-04T02:40:44;11.40;87.70
34147;DHT22;20423;49.448;9.056;2023-06-04T02:43:10;11.40;88.00
34147;DHT22;20423;49.448;9.056;2023-06-04T02:45:36;11.40;87.60
34147;DHT22;20423;49.448;9.056;2023-06-04T02:48:02;11.30;87.40
34147;DHT22;20423;49.448;9.056;2023-06-04T02:50:27;11.40;87.10
34147;DHT22;20423;49.448;9.056;2023-06-04T02:52:53;11.40;87.00
34147;DHT22;20423;49.448;9.056;2023-06-04T02:55:18;11.50;86.60
34147;DHT22;20423;49.448;9.056;2023-06-04T02:57:44;11.50;86.70
34147;DHT22;20423;49.448;9.056;2023-06-04T03:00:13;11.50;86.50
34147;DHT22;20423;49.448;9.056;2023-06-04T03:02:43;11.40;86.70
34147;DHT22;20423;49.448;9.056;2023-06-04T03:05:10;11.40;86.60
34147;DHT22;20423;49.448;9.056;2023-06-04T03:07:36;11.40;86.80
34147;DHT22;20423;49.448;9.056;2023-06-04T03:10:02;11.40;87.10
34147;DHT22;20423;49.448;9.056;2023-06-04T03:12:30;11.40;86.30
34147;DHT22;20423;49.448;9.056;2023-06-04T03:14:56;11.40;86.40
34147;DHT22;20423;49.448;9.056;2023-06-04T03:17:21;11.30;86.20
34147;DHT22;20423;49.448;9.056;2023-06-04T03:19:47;11.30;86.60
34147;DHT22;20423;49.448;9.056;2023-06-04T03:22:13;11.30;86.70
34147;DHT22;20423;49.448;9.056;2023-06-04T03:24:40;11.40;86.50
34147;DHT22;20423;49.448;9.056;2023-06-04T03:27:06;11.40;87.10
34147;DHT22;20423;49.448;9.056;2023-06-04T03:29:33;11.50;86.50
34147;DHT22;20423;49.448;9.056;2023-06-04T03:32:01;11.50;86.30
34147;DHT22;20423;49.448;9.056;2023-06-04T03:34:27;11.60;85.60
34147;DHT22;20423;49.448;9.056;2023-06-04T03:36:56;11.60;85.60
34147;DHT22;20423;49.448;9.056;2023-06-04T03:39:22;11.70;85.50
34147;DHT22;20423;49.448;9.056;2023-06-04T03:41:48;11.80;85.70
34147;DHT22;20423;49.448;9.056;2023-06-04T03:44:24;11.80;85.40
34147;DHT22;20423;49.448;9.056;2023-06-04T03:46:50;11.80;85.10
34147;DHT22;20423;49.448;9.056;2023-06-04T03:49:20;11.80;84.90
34147;DHT22;20423;49.448;9.056;2023-06-04T03:51:47;11.80;85.60
34147;DHT22;20423;49.448;9.056;2023-06-04T03:54:14;11.70;85.30
34147;DHT22;20423;49.448;9.056;2023-06-04T03:56:43;11.70;85.30
34147;DHT22;20423;49.448;9.056;2023-06-04T03:59:10;11.70;85.50
34147;DHT22;20423;49.448;9.056;2023-06-04T04:01:36;11.70;86.00
34147;DHT22;20423;49.448;9.056;2023-06-04T04:04:02;11.70;85.40
34147;DHT22;20423;49.448;9.056;2023-06-04T04:06:28;11.70;85.60
34147;DHT22;20423;49.448;9.056;2023-06-04T04:08:53;11.80;85.40
34147;DHT22;20423;49.448;9.056;2023-06-04T04:11:20;11.80;85.40
34147;DHT22;20423;49.448;9.056;2023-06-04T04:16:52;11.80;85.80
34147;DHT22;20423;49.448;9.056;2023-06-04T04:19:18;11.80;86.00
34147;DHT22;20423;49.448;9.056;2023-06-04T04:21:43;11.80;86.00
34147;DHT22;20423;49.448;9.056;2023-06-04T04:24:09;11.70;86.40
34147;DHT22;20423;49.448;9.056;2023-06-04T04:26:35;11.70;86.60
34147;DHT22;20423;49.448;9.056;2023-06-04T04:29:01;11.80;86.50
34147;DHT22;20423;49.448;9.056;2023-06-04T04:31:30;11.80;86.40
34147;DHT22;20423;49.448;9.056;2023-06-04T04:36:48;11.90;86.30
34147;DHT22;20423;49.448;9.056;2023-06-04T04:39:23;11.90;86.40
34147;DHT22;20423;49.448;9.056;2023-06-04T04:41:55;12.00;85.80
34147;DHT22;20423;49.448;9.056;2023-06-04T04:44:20;12.10;85.90
34147;DHT22;20423;49.448;9.056;2023-06-04T04:46:50;12.10;85.80
34147;DHT22;20423;49.448;9.056;2023-06-04T04:49:16;12.10;85.70
34147;DHT22;20423;49.448;9.056;2023-06-04T04:51:41;12.20;85.80
34147;DHT22;20423;49.448;9.056;2023-06-04T04:54:07;12.20;85.70
34147;DHT22;20423;49.448;9.056;2023-06-04T04:56:34;12.20;86.00
34147;DHT22;20423;49.448;9.056;2023-06-04T04:59:01;12.30;85.60
34147;DHT22;20423;49.448;9.056;2023-06-04T05:01:26;12.40;85.50
34147;DHT22;20423;49.448;9.056;2023-06-04T05:03:52;12.40;84.80
34147;DHT22;20423;49.448;9.056;2023-06-04T05:06:18;12.50;84.70
34147;DHT22;20423;49.448;9.056;2023-06-04T05:08:44;12.60;85.10
34147;DHT22;20423;49.448;9.056;2023-06-04T05:11:11;12.70;84.40
34147;DHT22;20423;49.448;9.056;2023-06-04T05:13:38;12.70;84.10
34147;DHT22;20423;49.448;9.056;2023-06-04T05:16:05;12.80;84.50
34147;DHT22;20423;49.448;9.056;2023-06-04T05:18:33;12.80;83.60
34147;DHT22;20423;49.448;9.056;2023-06-04T05:21:02;12.90;84.00
34147;DHT22;20423;49.448;9.056;2023-06-04T05:23:31;13.00;83.40
34147;DHT22;20423;49.448;9.056;2023-06-04T05:26:00;13.00;83.10
34147;DHT22;20423;49.448;9.056;2023-06-04T05:28:27;13.10;84.80
34147;DHT22;20423;49.448;9.056;2023-06-04T05:30:53;13.10;83.20
34147;DHT22;20423;49.448;9.056;2023-06-04T05:33:26;13.20;83.40
34147;DHT22;20423;49.448;9.056;2023-06-04T05:35:57;13.30;83.70
34147;DHT22;20423;49.448;9.056;2023-06-04T05:38:26;13.30;84.10
34147;DHT22;20423;49.448;9.056;2023-06-04T05:40:53;13.40;83.50
34147;DHT22;20423;49.448;9.056;2023-06-04T05:43:20;13.40;84.00
34147;DHT22;20423;49.448;9.056;2023-06-04T05:45:46;13.40;84.00
34147;DHT22;20423;49.448;9.056;2023-06-04T05:48:12;13.50;83.60
34147;DHT22;20423;49.448;9.056;2023-06-04T05:50:37;13.60;84.00
34147;DHT22;20423;49.448;9.056;2023-06-04T05:53:03;13.60;84.10
34147;DHT22;20423;49.448;9.056;2023-06-04T05:55:29;13.70;84.30
34147;DHT22;20423;49.448;9.056;2023-06-04T05:57:55;13.80;83.60
34147;DHT22;20423;49.448;9.056;2023-06-04T06:00:21;13.90;84.10
34147;DHT22;20423;49.448;9.056;2023-06-04T06:02:49;14.00;85.40
34147;DHT22;20423;49.448;9.056;2023-06-04T06:05:27;14.00;84.20
34147;DHT22;20423;49.448;9.056;2023-06-04T06:07:53;14.20;83.40
34147;DHT22;20423;49.448;9.056;2023-06-04T06:10:21;14.20;82.60
34147;DHT22;20423;49.448;9.056;2023-06-04T06:12:47;14.30;82.70
34147;DHT22;20423;49.448;9.056;2023-06-04T06:15:13;14.30;82.80
34147;DHT22;20423;49.448;9.056;2023-06-04T06:17:41;14.40;82.80
34147;DHT22;20423;49.448;9.056;2023-06-04T06:20:07;14.40;83.70
34147;DHT22;20423;49.448;9.056;2023-06-04T06:22:33;14.50;83.10
34147;DHT22;20423;49.448;9.056;2023-06-04T06:25:02;14.60;82.50
34147;DHT22;20423;49.448;9.056;2023-06-04T06:27:27;14.60;82.60
34147;DHT22;20423;49.448;9.056;2023-06-04T06:29:54;14.70;83.40
34147;DHT22;20423;49.448;9.056;2023-06-04T06:32:20;14.80;82.30
34147;DHT22;20423;49.448;9.056;2023-06-04T06:34:46;14.90;82.00
34147;DHT22;20423;49.448;9.056;2023-06-04T06:37:12;15.00;81.90
34147;DHT22;20423;49.448;9.056;2023-06-04T06:39:37;15.00;81.70
34147;DHT22;20423;49.448;9.056;2023-06-04T06:42:03;15.10;83.00
34147;DHT22;20423;49.448;9.056;2023-06-04T06:47:31;15.20;82.90
34147;DHT22;20423;49.448;9.056;2023-06-04T06:49:57;15.40;83.70
34147;DHT22;20423;49.448;9.056;2023-06-04T06:52:22;15.40;82.40
34147;DHT22;20423;49.448;9.056;2023-06-04T06:54:48;15.60;82.80
34147;DHT22;20423;49.448;9.056;2023-06-04T06:57:14;15.60;81.00
34147;DHT22;20423;49.448;9.056;2023-06-04T06:59:40;15.70;82.90
34147;DHT22;20423;49.448;9.056;2023-06-04T07:02:06;15.80;81.80
34147;DHT22;20423;49.448;9.056;2023-06-04T07:04:32;15.90;82.40
34147;DHT22;20423;49.448;9.056;2023-06-04T07:10:06;16.10;83.40
34147;DHT22;20423;49.448;9.056;2023-06-04T07:12:31;16.20;83.10
34147;DHT22;20423;49.448;9.056;2023-06-04T07:14:57;16.30;83.30
34147;DHT22;20423;49.448;9.056;2023-06-04T07:17:23;16.60;82.40
34147;DHT22;20423;49.448;9.056;2023-06-04T07:19:48;17.20;79.80
34147;DHT22;20423;49.448;9.056;2023-06-04T07:22:14;18.40;77.40
34147;DHT22;20423;49.448;9.056;2023-06-04T07:24:41;20.00;74.70
34147;DHT22;20423;49.448;9.056;2023-06-04T07:27:13;21.20;70.30
34147;DHT22;20423;49.448;9.056;2023-06-04T07:29:39;22.20;67.10
34147;DHT22;20423;49.448;9.056;2023-06-04T07:32:05;23.00;65.00
34147;DHT22;20423;49.448;9.056;2023-06-04T07:34:31;23.40;63.80
34147;DHT22;20423;49.448;9.056;2023-06-04T07:36:57;22.90;63.40
34147;DHT22;20423;49.448;9.056;2023-06-04T07:39:23;21.70;65.10
34147;DHT22;20423;49.448;9.056;2023-06-04T07:41:48;20.50;68.20
34147;DHT22;20423;49.448;9.056;2023-06-04T07:44:14;19.50;71.00
34147;DHT22;20423;49.448;9.056;2023-06-04T07:46:39;18.90;73.80
34147;DHT22;20423;49.448;9.056;2023-06-04T07:49:05;18.60;75.10
34147;DHT22;20423;49.448;9.056;2023-06-04T07:51:30;18.40;75.30
34147;DHT22;20423;49.448;9.056;2023-06-04T07:54:11;18.30;76.50
34147;DHT22;20423;49.448;9.056;2023-06-04T07:56:51;18.50;77.40
34147;DHT22;20423;49.448;9.056;2023-06-04T07:59:40;20.30;74.20
34147;DHT22;20423;49.448;9.056;2023-06-04T08:02:06;22.70;68.50
34147;DHT22;20423;49.448;9.056;2023-06-04T08:04:32;24.20;64.10
34147;DHT22;20423;49.448;9.056;2023-06-04T08:06:58;25.10;61.80
34147;DHT22;20423;49.448;9.056;2023-06-04T08:09:24;26.10;60.00
34147;DHT22;20423;49.448;9.056;2023-06-04T08:11:49;26.80;58.70
34147;DHT22;20423;49.448;9.056;2023-06-04T08:14:15;26.70;58.30
34147;DHT22;20423;49.448;9.056;2023-06-04T08:16:41;26.60;59.00
34147;DHT22;20423;49.448;9.056;2023-06-04T08:19:06;26.40;57.60
34147;DHT22;20423;49.448;9.056;2023-06-04T08:21:33;26.50;57.60
34147;DHT22;20423;49.448;9.056;2023-06-04T08:23:59;26.40;57.10
34147;DHT22;20423;49.448;9.056;2023-06-04T08:26:25;26.20;57.50
34147;DHT22;20423;49.448;9.056;2023-06-04T08:28:52;26.40;56.30
34147;DHT22;20423;49.448;9.056;2023-06-04T08:31:18;27.30;55.40
34147;DHT22;20423;49.448;9.056;2023-06-04T08:34:02;27.60;52.70
34147;DHT22;20423;49.448;9.056;2023-06-04T08:39:59;27.20;53.60
34147;DHT22;20423;49.448;9.056;2023-06-04T08:42:29;26.90;52.60
34147;DHT22;20423;49.448;9.056;2023-06-04T08:44:54;26.90;51.40
34147;DHT22;20423;49.448;9.056;2023-06-04T08:47:21;26.70;50.40
34147;DHT22;20423;49.448;9.056;2023-06-04T08:49:49;26.80;50.40
34147;DHT22;20423;49.448;9.056;2023-06-04T08:52:16;26.80;50.50
34147;DHT22;20423;49.448;9.056;2023-06-04T08:54:42;27.00;51.00
34147;DHT22;20423;49.448;9.056;2023-06-04T08:57:08;27.40;49.20
34147;DHT22;20423;49.448;9.056;2023-06-04T08:59:34;27.10;50.90
34147;DHT22;20423;49.448;9.056;2023-06-04T09:02:00;27.20;49.80
34147;DHT22;20423;49.448;9.056;2023-06-04T09:04:27;27.00;49.90
34147;DHT22;20423;49.448;9.056;2023-06-04T09:06:53;27.00;49.30
34147;DHT22;20423;49.448;9.056;2023-06-04T09:09:19;27.10;50.00
34147;DHT22;20423;49.448;9.056;2023-06-04T09:11:52;27.30;51.90
34147;DHT22;20423;49.448;9.056;2023-06-04T09:14:18;26.70;49.90
34147;DHT22;20423;49.448;9.056;2023-06-04T09:19:09;27.10;49.00
34147;DHT22;20423;49.448;9.056;2023-06-04T09:21:45;27.00;49.60
34147;DHT22;20423;49.448;9.056;2023-06-04T09:24:14;27.10;49.80
34147;DHT22;20423;49.448;9.056;2023-06-04T09:26:39;27.40;48.70
34147;DHT22;20423;49.448;9.056;2023-06-04T09:29:05;27.70;48.80
34147;DHT22;20423;49.448;9.056;2023-06-04T09:31:31;27.80;50.00
34147;DHT22;20423;49.448;9.056;2023-06-04T09:34:02;27.90;49.40
34147;DHT22;20423;49.448;9.056;2023-06-04T09:36:31;28.10;49.80
34147;DHT22;20423;49.448;9.056;2023-06-04T09:38:57;28.00;50.30
34147;DHT22;20423;49.448;9.056;2023-06-04T09:41:22;27.30;48.90
34147;DHT22;20423;49.448;9.056;2023-06-04T09:43:48;26.90;50.40
34147;DHT22;20423;49.448;9.056;2023-06-04T09:46:15;27.40;49.30
34147;DHT22;20423;49.448;9.056;2023-06-04T09:48:42;27.90;48.60
34147;DHT22;20423;49.448;9.056;2023-06-04T09:51:08;27.60;48.70
34147;DHT22;20423;49.448;9.056;2023-06-04T09:53:34;27.30;49.10
34147;DHT22;20423;49.448;9.056;2023-06-04T09:56:00;27.70;49.00
34147;DHT22;20423;49.448;9.056;2023-06-04T09:58:27;27.50;47.90
34147;DHT22;20423;49.448;9.056;2023-06-04T10:00:53;27.30;47.80
34147;DHT22;20423;49.448;9.056;2023-06-04T10:03:21;27.30;48.10
34147;DHT22;20423;49.448;9.056;2023-06-04T10:05:53;27.50;48.80
34147;DHT22;20423;49.448;9.056;2023-06-04T10:11:08;27.00;48.40
34147;DHT22;20423;49.448;9.056;2023-06-04T10:16:22;25.00;49.30
34147;DHT22;20423;49.448;9.056;2023-06-04T10:18:49;24.80;51.50
34147;DHT22;20423;49.448;9.056;2023-06-04T10:21:17;24.80;51.00
34147;DHT22;20423;49.448;9.056;2023-06-04T10:23:44;24.80;51.30
34147;DHT22;20423;49.448;9.056;2023-06-04T10:26:13;24.90;52.30
34147;DHT22;20423;49.448;9.056;2023-06-04T10:28:40;24.70;52.60
34147;DHT22;20423;49.448;9.056;2023-06-04T10:31:06;24.70;51.30
34147;DHT22;20423;49.448;9.056;2023-06-04T10:33:31;24.90;51.10
34147;DHT22;20423;49.448;9.056;2023-06-04T10:35:57;25.00;49.70
34147;DHT22;20423;49.448;9.056;2023-06-04T10:38:22;24.90;48.70
34147;DHT22;20423;49.448;9.056;2023-06-04T10:40:49;25.10;50.00
34147;DHT22;20423;49.448;9.056;2023-06-04T10:43:15;25.10;51.30
34147;DHT22;20423;49.448;9.056;2023-06-04T10:45:44;25.20;51.90
34147;DHT22;20423;49.448;9.056;2023-06-04T10:48:11;25.10;52.90
34147;DHT22;20423;49.448;9.056;2023-06-04T10:50:50;25.60;53.30
34147;DHT22;20423;49.448;9.056;2023-06-04T10:53:16;25.40;51.40
34147;DHT22;20423;49.448;9.056;2023-06-04T10:55:46;25.10;52.20
34147;DHT22;20423;49.448;9.056;2023-06-04T10:58:12;25.10;49.80
34147;DHT22;20423;49.448;9.056;2023-06-04T11:00:38;24.90;49.40
34147;DHT22;20423;49.448;9.056;2023-06-04T11:03:10;25.10;48.80
34147;DHT22;20423;49.448;9.056;2023-06-04T11:05:37;25.00;50.80
34147;DHT22;20423;49.448;9.056;2023-06-04T11:08:03;25.10;51.00
34147;DHT22;20423;49.448;9.056;2023-06-04T11:10:33;25.20;49.00
34147;DHT22;20423;49.448;9.056;2023-06-04T11:12:59;25.40;50.30
34147;DHT22;20423;49.448;9.056;2023-06-04T11:15:25;25.80;52.20
34147;DHT22;20423;49.448;9.056;2023-06-04T11:17:51;26.40;51.50
34147;DHT22;20423;49.448;9.056;2023-06-04T11:20:30;26.50;50.10
34147;DHT22;20423;49.448;9.056;2023-06-04T11:22:56;26.90;48.40
34147;DHT22;20423;49.448;9.056;2023-06-04T11:25:37;26.70;50.80
34147;DHT22;20423;49.448;9.056;2023-06-04T11:28:03;26.80;50.00
34147;DHT22;20423;49.448;9.056;2023-06-04T11:30:28;26.30;48.90
34147;DHT22;20423;49.448;9.056;2023-06-04T11:33:01;25.90;49.40
34147;DHT22;20423;49.448;9.056;2023-06-04T11:35:27;26.10;50.10
34147;DHT22;20423;49.448;9.056;2023-06-04T11:37:53;26.10;51.00
34147;DHT22;20423;49.448;9.056;2023-06-04T11:40:20;26.30;47.70
34147;DHT22;20423;49.448;9.056;2023-06-04T11:42:46;26.60;48.30
34147;DHT22;20423;49.448;9.056;2023-06-04T11:45:12;26.20;46.80
34147;DHT22;20423;49.448;9.056;2023-06-04T11:47:38;25.40;47.10
34147;DHT22;20423;49.448;9.056;2023-06-04T11:50:04;25.40;48.00
34147;DHT22;20423;49.448;9.056;2023-06-04T11:52:29;25.50;48.90
34147;DHT22;20423;49.448;9.056;2023-06-04T11:54:55;25.80;48.80
34147;DHT22;20423;49.448;9.056;2023-06-04T11:57:21;26.00;48.80
34147;DHT22;20423;49.448;9.056;2023-06-04T11:59:47;25.50;48.50
34147;DHT22;20423;49.448;9.056;2023-06-04T12:02:12;25.20;47.40
34147;DHT22;20423;49.448;9.056;2023-06-04T12:04:38;25.40;49.40
34147;DHT22;20423;49.448;9.056;2023-06-04T12:07:04;25.60;47.50
34147;DHT22;20423;49.448;9.056;2023-06-04T12:09:31;25.60;49.90
34147;DHT22;20423;49.448;9.056;2023-06-04T12:11:58;25.50;48.60
34147;DHT22;20423;49.448;9.056;2023-06-04T12:14:33;25.30;48.80
34147;DHT22;20423;49.448;9.056;2023-06-04T12:19:45;25.50;46.70
34147;DHT22;20423;49.448;9.056;2023-06-04T12:22:11;25.70;49.30
34147;DHT22;20423;49.448;9.056;2023-06-04T12:24:46;25.90;48.80
34147;DHT22;20423;49.448;9.056;2023-06-04T12:27:12;25.70;48.40
34147;DHT22;20423;49.448;9.056;2023-06-04T12:29:37;26.10;47.50
34147;DHT22;20423;49.448;9.056;2023-06-04T12:34:30;27.20;46.50
34147;DHT22;20423;49.448;9.056;2023-06-04T12:36:56;27.40;48.10
34147;DHT22;20423;49.448;9.056;2023-06-04T12:39:34;27.80;44.20
34147;DHT22;20423;49.448;9.056;2023-06-04T12:42:02;28.00;41.80
34147;DHT22;20423;49.448;9.056;2023-06-04T12:44:27;28.70;44.00
34147;DHT22;20423;49.448;9.056;2023-06-04T12:49:53;28.90;43.20
34147;DHT22;20423;49.448;9.056;2023-06-04T12:52:19;28.80;43.10
34147;DHT22;20423;49.448;9.056;2023-06-04T12:54:44;28.20;42.90
34147;DHT22;20423;49.448;9.056;2023-06-04T12:57:10;28.30;43.80
34147;DHT22;20423;49.448;9.056;2023-06-04T12:59:36;28.50;44.50
34147;DHT22;20423;49.448;9.056;2023-06-04T13:02:01;28.50;44.90
34147;DHT22;20423;49.448;9.056;2023-06-04T13:04:27;29.10;45.20
34147;DHT22;20423;49.448;9.056;2023-06-04T13:06:52;29.10;44.20
34147;DHT22;20423;49.448;9.056;2023-06-04T13:09:20;28.50;42.20
34147;DHT22;20423;49.448;9.056;2023-06-04T13:11:48;28.00;42.40
34147;DHT22;20423;49.448;9.056;2023-06-04T13:14:13;27.80;42.90
34147;DHT22;20423;49.448;9.056;2023-06-04T13:16:39;27.80;44.70
34147;DHT22;20423;49.448;9.056;2023-06-04T13:19:05;28.30;42.00
34147;DHT22;20423;49.448;9.056;2023-06-04T13:21:31;28.40;41.20
34147;DHT22;20423;49.448;9.056;2023-06-04T13:23:56;28.80;42.50
34147;DHT22;20423;49.448;9.056;2023-06-04T13:26:31;29.20;42.10
34147;DHT22;20423;49.448;9.056;2023-06-04T13:28:57;28.90;41.10
34147;DHT22;20423;49.448;9.056;2023-06-04T13:31:22;28.80;41.10
34147;DHT22;20423;49.448;9.056;2023-06-04T13:33:48;28.10;42.90
34147;DHT22;20423;49.448;9.056;2023-06-04T13:36:13;28.00;43.40
34147;DHT22;20423;49.448;9.056;2023-06-04T13:38:39;28.30;41.70
34147;DHT22;20423;49.448;9.056;2023-06-04T13:44:13;27.90;44.50
34147;DHT22;20423;49.448;9.056;2023-06-04T13:46:40;27.50;44.70
34147;DHT22;20423;49.448;9.056;2023-06-04T13:49:06;28.00;43.30
34147;DHT22;20423;49.448;9.056;2023-06-04T13:51:31;28.40;44.60
34147;DHT22;20423;49.448;9.056;2023-06-04T13:53:57;28.90;44.10
34147;DHT22;20423;49.448;9.056;2023-06-04T13:56:24;29.30;44.50
34147;DHT22;20423;49.448;9.056;2023-06-04T13:58:50;29.00;45.80
34147;DHT22;20423;49.448;9.056;2023-06-04T14:01:16;28.50;43.90
34147;DHT22;20423;49.448;9.056;2023-06-04T14:07:10;28.50;44.80
34147;DHT22;20423;49.448;9.056;2023-06-04T14:09:36;29.20;44.40
34147;DHT22;20423;49.448;9.056;2023-06-04T14:12:02;29.40;43.80
34147;DHT22;20423;49.448;9.056;2023-06-04T14:14:27;29.50;42.90
34147;DHT22;20423;49.448;9.056;2023-06-04T14:16:56;29.90;42.90
34147;DHT22;20423;49.448;9.056;2023-06-04T14:19:22;29.50;44.20
34147;DHT22;20423;49.448;9.056;2023-06-04T14:21:48;29.70;44.30
34147;DHT22;20423;49.448;9.056;2023-06-04T14:24:13;29.70;43.30
34147;DHT22;20423;49.448;9.056;2023-06-04T14:26:39;29.70;42.70
34147;DHT22;20423;49.448;9.056;2023-06-04T14:29:05;30.10;42.50
34147;DHT22;20423;49.448;9.056;2023-06-04T14:31:30;29.70;43.70
34147;DHT22;20423;49.448;9.056;2023-06-04T14:33:56;29.20;44.30
34147;DHT22;20423;49.448;9.056;2023-06-04T14:36:21;28.70;44.10
34147;DHT22;20423;49.448;9.056;2023-06-04T14:38:47;28.50;44.30
34147;DHT22;20423;49.448;9.056;2023-06-04T14:41:14;27.90;44.20
34147;DHT22;20423;49.448;9.056;2023-06-04T14:43:39;28.50;44.70
34147;DHT22;20423;49.448;9.056;2023-06-04T14:46:05;29.20;44.40
34147;DHT22;20423;49.448;9.056;2023-06-04T14:48:31;29.00;45.00
34147;DHT22;20423;49.448;9.056;2023-06-04T14:50:56;29.20;42.90
34147;DHT22;20423;49.448;9.056;2023-06-04T14:53:22;29.10;42.00
34147;DHT22;20423;49.448;9.056;2023-06-04T14:55:47;28.70;43.20
34147;DHT22;20423;49.448;9.056;2023-06-04T14:58:13;28.10;44.40
34147;DHT22;20423;49.448;9.056;2023-06-04T15:00:39;28.80;44.90
34147;DHT22;20423;49.448;9.056;2023-06-04T15:03:05;29.30;42.50
34147;DHT22;20423;49.448;9.056;2023-06-04T15:05:31;29.30;42.00
34147;DHT22;20423;49.448;9.056;2023-06-04T15:07:56;29.00;41.70
34147;DHT22;20423;49.448;9.056;2023-06-04T15:10:22;29.10;42.30
34147;DHT22;20423;49.448;9.056;2023-06-04T15:12:47;28.80;42.60
34147;DHT22;20423;49.448;9.056;2023-06-04T15:15:13;29.00;42.80
34147;DHT22;20423;49.448;9.056;2023-06-04T15:17:39;29.10;41.90
34147;DHT22;20423;49.448;9.056;2023-06-04T15:20:04;29.40;41.60
34147;DHT22;20423;49.448;9.056;2023-06-04T15:22:31;29.70;42.10
34147;DHT22;20423;49.448;9.056;2023-06-04T15:24:56;30.00;40.70
34147;DHT22;20423;49.448;9.056;2023-06-04T15:27:22;30.20;41.00
34147;DHT22;20423;49.448;9.056;2023-06-04T15:29:47;29.60;40.80
34147;DHT22;20423;49.448;9.056;2023-06-04T15:32:13;29.00;41.70
34147;DHT22;20423;49.448;9.056;2023-06-04T15:34:39;27.90;43.30
34147;DHT22;20423;49.448;9.056;2023-06-04T15:37:04;28.50;42.60
34147;DHT22;20423;49.448;9.056;2023-06-04T15:42:36;30.20;41.20
34147;DHT22;20423;49.448;9.056;2023-06-04T15:45:02;30.60;39.90
34147;DHT22;20423;49.448;9.056;2023-06-04T15:47:28;30.90;39.50
34147;DHT22;20423;49.448;9.056;2023-06-04T15:49:53;31.50;40.60
34147;DHT22;20423;49.448;9.056;2023-06-04T15:52:19;32.20;38.80
34147;DHT22;20423;49.448;9.056;2023-06-04T15:54:45;31.60;38.90
34147;DHT22;20423;49.448;9.056;2023-06-04T15:57:10;31.30;39.20
34147;DHT22;20423;49.448;9.056;2023-06-04T15:59:36;31.00;39.90
34147;DHT22;20423;49.448;9.056;2023-06-04T16:02:01;31.20;39.30
34147;DHT22;20423;49.448;9.056;2023-06-04T16:04:27;30.50;40.00
34147;DHT22;20423;49.448;9.056;2023-06-04T16:06:52;30.90;39.20
34147;DHT22;20423;49.448;9.056;2023-06-04T16:09:18;30.50;38.30
34147;DHT22;20423;49.448;9.056;2023-06-04T16:11:44;31.10;38.30